createdAt,value
2022-09-15T00:00:02.709Z,997.33
2022-09-15T00:01:02.674Z,997.38
2022-09-15T00:02:02.653Z,997.37
2022-09-15T00:03:02.382Z,997.41
2022-09-15T00:04:02.725Z,997.39
2022-09-15T00:05:02.218Z,997.38
2022-09-15T00:06:02.757Z,997.38
2022-09-15T00:07:02.333Z,997.39
2022-09-15T00:08:02.280Z,997.47
2022-09-15T00:09:02.876Z,997.44
2022-09-15T00:10:02.608Z,997.47
2022-09-15T00:11:02.496Z,997.45
2022-09-15T00:12:02.357Z,997.45
2022-09-15T00:13:02.827Z,997.47
2022-09-15T00:14:02.585Z,997.43
2022-09-15T00:15:02.808Z,997.46
2022-09-15T00:16:02.465Z,997.47
2022-09-15T00:17:02.027Z,997.44
2022-09-15T00:18:02.021Z,997.40
2022-09-15T00:19:01.949Z,997.44
2022-09-15T00:20:01.994Z,997.39
2022-09-15T00:21:02.190Z,997.40
2022-09-15T00:22:01.938Z,997.42
2022-09-15T00:23:01.743Z,997.43
2022-09-15T00:24:01.958Z,997.43
2022-09-15T00:25:01.584Z,997.42
2022-09-15T00:26:02.077Z,997.45
2022-09-15T00:27:02.098Z,997.43
2022-09-15T00:28:01.999Z,997.41
2022-09-15T00:29:02.000Z,997.43
2022-09-15T00:30:01.867Z,997.45
2022-09-15T00:31:01.951Z,997.43
2022-09-15T00:32:02.976Z,997.46
2022-09-15T00:33:02.518Z,997.47
2022-09-15T00:34:02.613Z,997.45
2022-09-15T00:35:02.585Z,997.48
2022-09-15T00:36:02.772Z,997.48
2022-09-15T00:37:02.669Z,997.52
2022-09-15T00:38:02.958Z,997.51
2022-09-15T00:39:02.585Z,997.55
2022-09-15T00:40:02.783Z,997.51
2022-09-15T00:41:03.071Z,997.58
2022-09-15T00:42:02.452Z,997.54
2022-09-15T00:43:02.055Z,997.53
2022-09-15T00:44:02.046Z,997.53
2022-09-15T00:45:02.338Z,997.54
2022-09-15T00:46:02.062Z,997.54
2022-09-15T00:47:18.696Z,997.54
2022-09-15T00:48:03.011Z,997.52
2022-09-15T00:49:02.598Z,997.53
2022-09-15T00:50:02.774Z,997.56
2022-09-15T00:51:02.631Z,997.58
2022-09-15T00:52:02.020Z,997.56
2022-09-15T00:53:02.047Z,997.61
2022-09-15T00:54:02.468Z,997.59
2022-09-15T00:55:02.396Z,997.61
2022-09-15T00:56:02.192Z,997.61
2022-09-15T00:57:02.780Z,997.61
2022-09-15T00:58:02.487Z,997.61
2022-09-15T00:59:02.908Z,997.63
2022-09-15T01:00:02.916Z,997.63
2022-09-15T01:01:02.981Z,997.61
2022-09-15T01:02:02.639Z,997.64
2022-09-15T01:03:02.046Z,997.59
2022-09-15T01:04:02.212Z,997.66
2022-09-15T01:05:02.118Z,997.69
2022-09-15T01:06:02.662Z,997.68
2022-09-15T01:07:02.827Z,997.70
2022-09-15T01:08:02.610Z,997.70
2022-09-15T01:09:02.899Z,997.69
2022-09-15T01:10:03.239Z,997.68
2022-09-15T01:11:03.014Z,997.71
2022-09-15T01:12:02.521Z,997.70
2022-09-15T01:13:02.906Z,997.69
2022-09-15T01:14:02.395Z,997.70
2022-09-15T01:15:02.394Z,997.72
2022-09-15T01:16:02.746Z,997.76
2022-09-15T01:17:02.834Z,997.72
2022-09-15T01:18:02.699Z,997.74
2022-09-15T01:19:02.844Z,997.77
2022-09-15T01:20:02.980Z,997.76
2022-09-15T01:21:02.560Z,997.76
2022-09-15T01:22:02.782Z,997.75
2022-09-15T01:23:02.680Z,997.73
2022-09-15T01:24:02.928Z,997.72
2022-09-15T01:25:02.936Z,997.69
2022-09-15T01:26:03.222Z,997.72
2022-09-15T01:27:13.855Z,997.70
2022-09-15T01:28:02.886Z,997.72
2022-09-15T01:29:02.420Z,997.74
2022-09-15T01:30:03.009Z,997.74
2022-09-15T01:31:02.743Z,997.74
2022-09-15T01:32:02.993Z,997.75
2022-09-15T01:33:02.770Z,997.76
2022-09-15T01:34:03.092Z,997.76
2022-09-15T01:35:03.254Z,997.77
2022-09-15T01:36:02.971Z,997.76
2022-09-15T01:37:02.360Z,997.75
2022-09-15T01:38:02.985Z,997.74
2022-09-15T01:39:02.630Z,997.72
2022-09-15T01:40:02.468Z,997.73
2022-09-15T01:41:02.621Z,997.73
2022-09-15T01:42:02.168Z,997.68
2022-09-15T01:43:02.182Z,997.70
2022-09-15T01:44:02.246Z,997.70
2022-09-15T01:45:02.311Z,997.72
2022-09-15T01:46:02.597Z,997.74
2022-09-15T01:47:02.764Z,997.74
2022-09-15T01:48:02.443Z,997.77
2022-09-15T01:49:02.413Z,997.77
2022-09-15T01:50:02.639Z,997.77
2022-09-15T01:51:02.632Z,997.75
2022-09-15T01:52:02.964Z,997.79
2022-09-15T01:53:03.174Z,997.75
2022-09-15T01:54:02.746Z,997.78
2022-09-15T01:55:02.970Z,997.79
2022-09-15T01:56:03.037Z,997.79
2022-09-15T01:57:02.187Z,997.76
2022-09-15T01:58:02.288Z,997.80
2022-09-15T01:59:02.777Z,997.79
2022-09-15T02:00:02.311Z,997.82
2022-09-15T02:01:02.238Z,997.85
2022-09-15T02:02:02.804Z,997.83
2022-09-15T02:03:02.645Z,997.84
2022-09-15T02:04:03.004Z,997.83
2022-09-15T02:05:03.041Z,997.86
2022-09-15T02:06:02.960Z,997.85
2022-09-15T02:07:03.093Z,997.83
2022-09-15T02:08:03.373Z,997.85
2022-09-15T02:09:02.915Z,997.86
2022-09-15T02:10:02.923Z,997.85
2022-09-15T02:11:03.005Z,997.87
2022-09-15T02:12:02.965Z,997.87
2022-09-15T02:13:02.592Z,997.85
2022-09-15T02:14:03.095Z,997.88
2022-09-15T02:15:03.213Z,997.90
2022-09-15T02:16:03.060Z,997.90
2022-09-15T02:17:02.495Z,997.90
2022-09-15T02:18:02.378Z,997.89
2022-09-15T02:19:02.597Z,997.87
2022-09-15T02:20:02.613Z,997.87
2022-09-15T02:21:02.293Z,997.86
2022-09-15T02:22:02.973Z,997.86
2022-09-15T02:23:03.063Z,997.87
2022-09-15T02:24:03.100Z,997.90
2022-09-15T02:25:03.043Z,997.91
2022-09-15T02:26:02.879Z,997.89
2022-09-15T02:27:02.426Z,997.91
2022-09-15T02:28:02.586Z,997.88
2022-09-15T02:29:02.760Z,997.89
2022-09-15T02:30:02.880Z,997.86
2022-09-15T02:31:02.900Z,997.85
2022-09-15T02:32:07.015Z,997.83
2022-09-15T02:33:02.765Z,997.83
2022-09-15T02:34:03.125Z,997.82
2022-09-15T02:35:02.735Z,997.78
2022-09-15T02:36:02.741Z,997.81
2022-09-15T02:37:03.376Z,997.82
2022-09-15T02:38:03.746Z,997.80
2022-09-15T02:39:03.481Z,997.79
2022-09-15T02:40:03.551Z,997.78
2022-09-15T02:41:03.315Z,997.76
2022-09-15T02:42:03.172Z,997.79
2022-09-15T02:43:03.103Z,997.72
2022-09-15T02:44:02.644Z,997.76
2022-09-15T02:45:03.172Z,997.72
2022-09-15T02:46:02.828Z,997.72
2022-09-15T02:47:02.271Z,997.74
2022-09-15T02:48:02.848Z,997.75
2022-09-15T02:49:02.594Z,997.74
2022-09-15T02:50:02.729Z,997.78
2022-09-15T02:51:02.839Z,997.78
2022-09-15T02:52:02.979Z,997.78
2022-09-15T02:53:02.606Z,997.79
2022-09-15T02:54:02.532Z,997.78
2022-09-15T02:55:02.994Z,997.82
2022-09-15T02:56:02.771Z,997.82
2022-09-15T02:57:03.367Z,997.83
2022-09-15T02:58:03.243Z,997.79
2022-09-15T02:59:03.232Z,997.80
2022-09-15T03:00:03.429Z,997.76
2022-09-15T03:01:03.329Z,997.77
2022-09-15T03:02:02.782Z,997.75
2022-09-15T03:03:02.985Z,997.74
2022-09-15T03:04:02.803Z,997.73
2022-09-15T03:05:02.747Z,997.71
2022-09-15T03:06:03.289Z,997.73
2022-09-15T03:07:02.390Z,997.69
2022-09-15T03:08:02.443Z,997.69
2022-09-15T03:09:02.839Z,997.74
2022-09-15T03:10:02.871Z,997.82
2022-09-15T03:11:02.430Z,997.87
2022-09-15T03:12:03.136Z,997.87
2022-09-15T03:13:02.864Z,997.88
2022-09-15T03:14:03.237Z,997.86
2022-09-15T03:15:03.301Z,997.91
2022-09-15T03:16:03.234Z,997.91
2022-09-15T03:17:03.168Z,997.90
2022-09-15T03:18:03.325Z,997.93
2022-09-15T03:19:03.144Z,997.97
2022-09-15T03:20:03.245Z,997.98
2022-09-15T03:21:02.929Z,997.99
2022-09-15T03:22:02.902Z,998.00
2022-09-15T03:23:03.455Z,998.04
2022-09-15T03:24:02.989Z,998.07
2022-09-15T03:25:03.025Z,998.05
2022-09-15T03:26:03.053Z,998.05
2022-09-15T03:27:02.410Z,998.08
2022-09-15T03:28:02.943Z,998.04
2022-09-15T03:29:02.714Z,998.05
2022-09-15T03:30:02.796Z,998.05
2022-09-15T03:31:03.030Z,998.03
2022-09-15T03:32:03.203Z,998.08
2022-09-15T03:33:02.902Z,998.04
2022-09-15T03:34:03.412Z,998.03
2022-09-15T03:35:03.164Z,998.07
2022-09-15T03:36:03.081Z,998.04
2022-09-15T03:37:03.106Z,998.09
2022-09-15T03:38:03.360Z,998.10
2022-09-15T03:39:03.680Z,998.08
2022-09-15T03:40:03.404Z,998.07
2022-09-15T03:41:03.667Z,998.09
2022-09-15T03:42:02.560Z,998.10
2022-09-15T03:43:02.626Z,998.14
2022-09-15T03:44:02.483Z,998.14
2022-09-15T03:45:02.422Z,998.16
2022-09-15T03:46:02.964Z,998.16
2022-09-15T03:47:03.494Z,998.14
2022-09-15T03:48:03.507Z,998.15
2022-09-15T03:49:02.995Z,998.12
2022-09-15T03:50:03.089Z,998.15
2022-09-15T03:51:02.962Z,998.15
2022-09-15T03:52:03.808Z,998.14
2022-09-15T03:53:03.271Z,998.12
2022-09-15T03:54:03.681Z,998.12
2022-09-15T03:55:03.733Z,998.12
2022-09-15T03:56:03.683Z,998.08
2022-09-15T03:57:02.950Z,998.10
2022-09-15T03:58:03.440Z,998.08
2022-09-15T03:59:03.379Z,998.08
2022-09-15T04:00:03.199Z,998.13
2022-09-15T04:01:03.407Z,998.11
2022-09-15T04:02:02.759Z,998.11
2022-09-15T04:03:03.121Z,998.05
2022-09-15T04:04:03.191Z,998.07
2022-09-15T04:05:02.886Z,998.09
2022-09-15T04:06:03.242Z,998.05
2022-09-15T04:07:02.007Z,998.08
2022-09-15T04:08:02.023Z,998.08
2022-09-15T04:09:02.242Z,998.09
2022-09-15T04:10:02.197Z,998.12
2022-09-15T04:11:02.508Z,998.06
2022-09-15T04:12:02.523Z,998.08
2022-09-15T04:13:02.094Z,998.09
2022-09-15T04:14:02.298Z,998.10
2022-09-15T04:15:02.527Z,998.10
2022-09-15T04:16:02.182Z,998.06
2022-09-15T04:17:02.290Z,998.12
2022-09-15T04:18:02.904Z,998.08
2022-09-15T04:19:02.850Z,998.06
2022-09-15T04:20:02.475Z,998.11
2022-09-15T04:21:02.757Z,998.08
2022-09-15T04:22:02.515Z,998.03
2022-09-15T04:23:02.464Z,998.03
2022-09-15T04:24:02.969Z,998.05
2022-09-15T04:25:02.688Z,998.08
2022-09-15T04:26:02.538Z,998.10
2022-09-15T04:27:02.537Z,998.05
2022-09-15T04:28:02.334Z,998.07
2022-09-15T04:29:04.654Z,998.08
2022-09-15T04:30:02.074Z,998.07
2022-09-15T04:31:02.622Z,998.03
2022-09-15T04:32:02.870Z,998.02
2022-09-15T04:33:02.593Z,998.03
2022-09-15T04:34:02.873Z,998.04
2022-09-15T04:35:02.941Z,998.03
2022-09-15T04:36:02.702Z,998.00
2022-09-15T04:37:02.612Z,998.01
2022-09-15T04:38:02.870Z,998.03
2022-09-15T04:39:03.228Z,998.03
2022-09-15T04:40:02.673Z,998.02
2022-09-15T04:41:02.891Z,998.00
2022-09-15T04:42:03.387Z,998.00
2022-09-15T04:43:03.029Z,997.97
2022-09-15T04:44:03.197Z,997.98
2022-09-15T04:45:02.936Z,998.01
2022-09-15T04:46:02.852Z,997.99
2022-09-15T04:47:02.986Z,997.97
2022-09-15T04:48:03.009Z,998.00
2022-09-15T04:49:02.696Z,998.01
2022-09-15T04:50:02.621Z,998.02
2022-09-15T04:51:02.583Z,998.08
2022-09-15T04:52:03.975Z,998.08
2022-09-15T04:53:02.528Z,998.22
2022-09-15T04:54:02.589Z,998.25
2022-09-15T04:55:02.361Z,998.25
2022-09-15T04:56:02.697Z,998.20
2022-09-15T04:57:02.787Z,998.15
2022-09-15T04:58:02.706Z,998.13
2022-09-15T04:59:04.137Z,998.17
2022-09-15T05:00:02.705Z,998.18
2022-09-15T05:01:03.108Z,998.26
2022-09-15T05:02:02.430Z,998.31
2022-09-15T05:03:02.056Z,998.24
2022-09-15T05:04:02.547Z,998.21
2022-09-15T05:05:02.228Z,998.24
2022-09-15T05:06:02.239Z,998.31
2022-09-15T05:07:03.003Z,998.35
2022-09-15T05:08:03.424Z,998.32
2022-09-15T05:09:07.629Z,998.29
2022-09-15T05:10:03.308Z,998.31
2022-09-15T05:11:02.897Z,998.36
2022-09-15T05:12:02.373Z,998.40
2022-09-15T05:13:02.223Z,998.43
2022-09-15T05:14:02.349Z,998.44
2022-09-15T05:15:02.353Z,998.41
2022-09-15T05:16:02.482Z,998.38
2022-09-15T05:17:02.863Z,998.46
2022-09-15T05:18:02.400Z,998.38
2022-09-15T05:19:02.652Z,998.39
2022-09-15T05:20:02.516Z,998.35
2022-09-15T05:21:02.842Z,998.32
2022-09-15T05:22:03.242Z,998.35
2022-09-15T05:23:03.140Z,998.36
2022-09-15T05:24:03.012Z,998.37
2022-09-15T05:25:02.726Z,998.38
2022-09-15T05:26:02.993Z,998.40
2022-09-15T05:27:03.130Z,998.38
2022-09-15T05:28:03.331Z,998.33
2022-09-15T05:29:02.822Z,998.36
2022-09-15T05:30:31.869Z,998.36
2022-09-15T05:31:02.866Z,998.34
2022-09-15T05:32:02.833Z,998.36
2022-09-15T05:33:02.509Z,998.38
2022-09-15T05:34:02.429Z,998.40
2022-09-15T05:35:02.696Z,998.39
2022-09-15T05:36:02.352Z,998.38
2022-09-15T05:37:03.205Z,998.37
2022-09-15T05:38:02.911Z,998.36
2022-09-15T05:39:03.349Z,998.35
2022-09-15T05:40:08.073Z,998.35
2022-09-15T05:41:03.076Z,998.37
2022-09-15T05:42:02.913Z,998.38
2022-09-15T05:43:02.646Z,998.36
2022-09-15T05:44:02.702Z,998.40
2022-09-15T05:45:02.666Z,998.40
2022-09-15T05:46:02.774Z,998.44
2022-09-15T05:47:02.845Z,998.42
2022-09-15T05:48:02.922Z,998.40
2022-09-15T05:49:03.147Z,998.45
2022-09-15T05:50:03.325Z,998.46
2022-09-15T05:51:03.085Z,998.47
2022-09-15T05:52:03.109Z,998.49
2022-09-15T05:53:03.387Z,998.50
2022-09-15T05:54:02.981Z,998.47
2022-09-15T05:55:03.235Z,998.50
2022-09-15T05:56:03.075Z,998.47
2022-09-15T05:57:03.253Z,998.50
2022-09-15T05:58:03.093Z,998.49
2022-09-15T05:59:03.137Z,998.51
2022-09-15T06:00:02.926Z,998.46
2022-09-15T06:01:03.092Z,998.47
2022-09-15T06:02:02.028Z,998.50
2022-09-15T06:03:02.537Z,998.52
2022-09-15T06:04:02.217Z,998.50
2022-09-15T06:05:02.070Z,998.50
2022-09-15T06:06:02.193Z,998.54
2022-09-15T06:07:02.985Z,998.53
2022-09-15T06:08:02.667Z,998.51
2022-09-15T06:09:03.063Z,998.49
2022-09-15T06:10:02.994Z,998.45
2022-09-15T06:11:02.646Z,998.46
2022-09-15T06:12:02.727Z,998.47
2022-09-15T06:13:02.830Z,998.49
2022-09-15T06:14:02.552Z,998.49
2022-09-15T06:15:02.208Z,998.50
2022-09-15T06:16:02.451Z,998.55
2022-09-15T06:17:02.694Z,998.53
2022-09-15T06:18:02.872Z,998.52
2022-09-15T06:19:03.200Z,998.56
2022-09-15T06:20:03.280Z,998.56
2022-09-15T06:21:03.276Z,998.57
2022-09-15T06:22:02.619Z,998.55
2022-09-15T06:23:02.410Z,998.56
2022-09-15T06:24:02.465Z,998.54
2022-09-15T06:25:02.043Z,998.59
2022-09-15T06:26:02.073Z,998.55
2022-09-15T06:27:03.132Z,998.55
2022-09-15T06:28:02.818Z,998.57
2022-09-15T06:29:02.634Z,998.58
2022-09-15T06:30:03.126Z,998.58
2022-09-15T06:31:02.692Z,998.58
2022-09-15T06:32:03.583Z,998.57
2022-09-15T06:33:02.780Z,998.61
2022-09-15T06:34:02.817Z,998.64
2022-09-15T06:35:02.987Z,998.63
2022-09-15T06:36:03.009Z,998.64
2022-09-15T06:37:02.545Z,998.64
2022-09-15T06:38:02.835Z,998.67
2022-09-15T06:39:02.851Z,998.70
2022-09-15T06:40:03.004Z,998.69
2022-09-15T06:41:02.942Z,998.71
2022-09-15T06:42:04.858Z,998.70
2022-09-15T06:43:02.828Z,998.73
2022-09-15T06:44:02.742Z,998.69
2022-09-15T06:45:02.705Z,998.74
2022-09-15T06:46:03.077Z,998.71
2022-09-15T06:47:02.323Z,998.70
2022-09-15T06:48:23.540Z,998.71
2022-09-15T06:49:02.358Z,998.69
2022-09-15T06:50:02.663Z,998.71
2022-09-15T06:51:02.352Z,998.69
2022-09-15T06:52:02.385Z,998.73
2022-09-15T06:53:02.954Z,998.72
2022-09-15T06:54:02.939Z,998.74
2022-09-15T06:55:02.374Z,998.73
2022-09-15T06:56:02.734Z,998.71
2022-09-15T06:57:02.743Z,998.80
2022-09-15T06:58:03.141Z,998.78
2022-09-15T06:59:03.208Z,998.81
2022-09-15T07:00:02.853Z,998.83
2022-09-15T07:01:02.745Z,998.81
2022-09-15T07:02:05.092Z,998.82
2022-09-15T07:03:02.193Z,998.83
2022-09-15T07:04:02.145Z,998.86
2022-09-15T07:05:02.230Z,998.85
2022-09-15T07:06:02.021Z,998.88
2022-09-15T07:07:02.224Z,998.89
2022-09-15T07:08:02.453Z,998.93
2022-09-15T07:09:02.658Z,998.93
2022-09-15T07:10:02.361Z,998.91
2022-09-15T07:11:02.600Z,998.92
2022-09-15T07:12:01.926Z,998.94
2022-09-15T07:13:02.157Z,998.93
2022-09-15T07:14:02.163Z,998.92
2022-09-15T07:15:02.837Z,998.95
2022-09-15T07:16:01.953Z,998.93
2022-09-15T07:17:02.090Z,998.90
2022-09-15T07:18:02.139Z,998.92
2022-09-15T07:19:02.071Z,998.94
2022-09-15T07:20:02.113Z,998.95
2022-09-15T07:21:02.508Z,998.99
2022-09-15T07:22:02.769Z,999.00
2022-09-15T07:23:02.751Z,999.03
2022-09-15T07:24:07.060Z,999.00
2022-09-15T07:25:02.969Z,999.07
2022-09-15T07:26:02.745Z,999.06
2022-09-15T07:27:02.476Z,999.08
2022-09-15T07:28:02.420Z,999.08
2022-09-15T07:29:02.524Z,999.07
2022-09-15T07:30:02.312Z,999.08
2022-09-15T07:31:02.659Z,999.10
2022-09-15T07:32:02.837Z,999.10
2022-09-15T07:33:02.799Z,999.12
2022-09-15T07:34:02.720Z,999.13
2022-09-15T07:35:02.831Z,999.10
2022-09-15T07:36:02.340Z,999.13
2022-09-15T07:37:02.217Z,999.14
2022-09-15T07:38:02.573Z,999.12
2022-09-15T07:39:02.565Z,999.18
2022-09-15T07:40:02.711Z,999.14
2022-09-15T07:41:02.461Z,999.18
2022-09-15T07:42:02.505Z,999.15
2022-09-15T07:43:02.812Z,999.15
2022-09-15T07:44:02.578Z,999.21
2022-09-15T07:45:02.476Z,999.18
2022-09-15T07:46:02.549Z,999.20
2022-09-15T07:47:02.771Z,999.22
2022-09-15T07:48:02.689Z,999.19
2022-09-15T07:49:02.748Z,999.22
2022-09-15T07:50:02.949Z,999.24
2022-09-15T07:51:02.581Z,999.23
2022-09-15T07:52:02.791Z,999.22
2022-09-15T07:53:02.637Z,999.21
2022-09-15T07:54:02.724Z,999.21
2022-09-15T07:55:03.180Z,999.24
2022-09-15T07:56:03.016Z,999.26
2022-09-15T07:57:02.958Z,999.27
2022-09-15T07:58:02.909Z,999.30
2022-09-15T07:59:03.099Z,999.31
2022-09-15T08:00:03.130Z,999.30
2022-09-15T08:01:03.205Z,999.32
2022-09-15T08:02:02.172Z,999.31
2022-09-15T08:03:02.182Z,999.29
2022-09-15T08:04:02.480Z,999.30
2022-09-15T08:05:02.606Z,999.30
2022-09-15T08:06:01.994Z,999.32
2022-09-15T08:07:02.506Z,999.34
2022-09-15T08:08:02.786Z,999.36
2022-09-15T08:09:02.957Z,999.40
2022-09-15T08:10:02.555Z,999.36
2022-09-15T08:11:02.999Z,999.37
2022-09-15T08:12:02.861Z,999.39
2022-09-15T08:13:02.830Z,999.40
2022-09-15T08:14:03.112Z,999.41
2022-09-15T08:15:03.216Z,999.43
2022-09-15T08:16:03.279Z,999.41
2022-09-15T08:17:02.611Z,999.44
2022-09-15T08:18:02.609Z,999.47
2022-09-15T08:19:02.550Z,999.48
2022-09-15T08:20:02.563Z,999.54
2022-09-15T08:21:02.683Z,999.53
2022-09-15T08:22:02.792Z,999.51
2022-09-15T08:23:02.796Z,999.55
2022-09-15T08:24:02.458Z,999.53
2022-09-15T08:25:02.694Z,999.51
2022-09-15T08:26:02.709Z,999.52
2022-09-15T08:27:02.376Z,999.48
2022-09-15T08:28:02.392Z,999.49
2022-09-15T08:29:01.971Z,999.51
2022-09-15T08:30:02.447Z,999.52
2022-09-15T08:31:02.327Z,999.51
2022-09-15T08:32:03.031Z,999.51
2022-09-15T08:33:02.837Z,999.52
2022-09-15T08:34:03.166Z,999.49
2022-09-15T08:35:03.005Z,999.55
2022-09-15T08:36:03.041Z,999.55
2022-09-15T08:37:03.143Z,999.58
2022-09-15T08:38:02.830Z,999.63
2022-09-15T08:39:03.378Z,999.65
2022-09-15T08:40:03.054Z,999.67
2022-09-15T08:41:03.055Z,999.65
2022-09-15T08:42:02.868Z,999.68
2022-09-15T08:43:02.819Z,999.63
2022-09-15T08:44:02.608Z,999.65
2022-09-15T08:45:02.430Z,999.68
2022-09-15T08:46:02.597Z,999.73
2022-09-15T08:47:02.544Z,999.70
2022-09-15T08:48:02.407Z,999.69
2022-09-15T08:49:03.163Z,999.69
2022-09-15T08:50:02.474Z,999.66
2022-09-15T08:51:02.271Z,999.66
2022-09-15T08:52:03.136Z,999.66
2022-09-15T08:53:02.997Z,999.70
2022-09-15T08:54:02.821Z,999.68
2022-09-15T08:55:03.034Z,999.68
2022-09-15T08:56:05.383Z,999.63
2022-09-15T08:57:03.311Z,999.68
2022-09-15T08:58:03.293Z,999.69
2022-09-15T08:59:03.335Z,999.70
2022-09-15T09:00:02.881Z,999.66
2022-09-15T09:01:02.927Z,999.65
2022-09-15T09:02:02.793Z,999.65
2022-09-15T09:03:02.423Z,999.62
2022-09-15T09:04:02.829Z,999.60
2022-09-15T09:05:02.199Z,999.57
2022-09-15T09:06:02.805Z,999.55
2022-09-15T09:07:02.853Z,999.56
2022-09-15T09:08:02.762Z,999.59
2022-09-15T09:09:02.613Z,999.64
2022-09-15T09:10:02.708Z,999.67
2022-09-15T09:11:02.429Z,999.72
2022-09-15T09:12:03.214Z,999.77
2022-09-15T09:13:03.314Z,999.77
2022-09-15T09:14:03.306Z,999.79
2022-09-15T09:15:03.267Z,999.81
2022-09-15T09:16:03.326Z,999.86
2022-09-15T09:17:02.726Z,999.86
2022-09-15T09:18:02.668Z,999.89
2022-09-15T09:19:02.723Z,999.87
2022-09-15T09:20:02.551Z,999.90
2022-09-15T09:21:02.514Z,999.91
2022-09-15T09:22:02.805Z,999.94
2022-09-15T09:23:02.542Z,999.94
2022-09-15T09:24:02.561Z,999.92
2022-09-15T09:25:11.691Z,999.95
2022-09-15T09:26:02.533Z,999.94
2022-09-15T09:27:03.003Z,999.98
2022-09-15T09:28:02.878Z,999.97
2022-09-15T09:29:02.987Z,999.93
2022-09-15T09:30:02.494Z,999.91
2022-09-15T09:31:02.759Z,999.93
2022-09-15T09:32:03.045Z,999.90
2022-09-15T09:33:02.800Z,999.92
2022-09-15T09:34:02.616Z,999.94
2022-09-15T09:35:02.995Z,999.96
2022-09-15T09:36:02.949Z,999.95
2022-09-15T09:37:01.846Z,1000.04
2022-09-15T09:38:02.328Z,1000.02
2022-09-15T09:39:02.071Z,999.98
2022-09-15T09:40:02.010Z,999.99
2022-09-15T09:41:02.874Z,1000.00
2022-09-15T09:42:01.951Z,1000.02
2022-09-15T09:43:02.392Z,1000.03
2022-09-15T09:44:02.039Z,1000.03
2022-09-15T09:45:01.983Z,1000.02
2022-09-15T09:46:02.594Z,1000.00
2022-09-15T09:47:02.259Z,1000.00
2022-09-15T09:48:02.589Z,999.98
2022-09-15T09:49:02.554Z,999.98
2022-09-15T09:50:02.686Z,1000.03
2022-09-15T09:51:02.751Z,1000.00
2022-09-15T09:52:02.790Z,1000.01
2022-09-15T09:53:02.911Z,999.99
2022-09-15T09:54:02.918Z,1000.02
2022-09-15T09:55:02.976Z,1000.01
2022-09-15T09:56:03.027Z,1000.03
2022-09-15T09:57:03.054Z,1000.03
2022-09-15T09:58:02.149Z,999.96
2022-09-15T09:59:02.095Z,999.97
2022-09-15T10:00:02.583Z,999.96
2022-09-15T10:01:02.763Z,999.96
2022-09-15T10:02:02.687Z,999.98
2022-09-15T10:03:03.445Z,1000.04
2022-09-15T10:04:02.968Z,1000.02
2022-09-15T10:05:03.124Z,1000.03
2022-09-15T10:06:02.922Z,1000.02
2022-09-15T10:07:03.413Z,1000.05
2022-09-15T10:08:03.093Z,1000.05
2022-09-15T10:09:03.037Z,1000.04
2022-09-15T10:10:02.937Z,1000.10
2022-09-15T10:11:02.947Z,1000.03
2022-09-15T10:12:03.007Z,1000.08
2022-09-15T10:13:02.971Z,1000.09
2022-09-15T10:14:02.939Z,1000.09
2022-09-15T10:15:03.034Z,1000.11
2022-09-15T10:16:03.179Z,1000.07
2022-09-15T10:17:02.893Z,1000.09
2022-09-15T10:18:03.718Z,1000.07
2022-09-15T10:19:03.742Z,1000.08
2022-09-15T10:20:03.786Z,1000.08
2022-09-15T10:21:03.591Z,1000.06
2022-09-15T10:22:03.854Z,1000.05
2022-09-15T10:23:02.926Z,1000.05
2022-09-15T10:24:02.842Z,1000.02
2022-09-15T10:25:02.866Z,1000.02
2022-09-15T10:26:02.644Z,1000.04
2022-09-15T10:27:02.560Z,1000.05
2022-09-15T10:28:03.049Z,1000.05
2022-09-15T10:29:03.109Z,1000.05
2022-09-15T10:30:02.922Z,1000.02
2022-09-15T10:31:03.371Z,1000.02
2022-09-15T10:32:03.456Z,1000.03
2022-09-15T10:33:03.275Z,1000.07
2022-09-15T10:34:03.001Z,1000.04
2022-09-15T10:35:03.336Z,1000.08
2022-09-15T10:36:03.426Z,1000.06
2022-09-15T10:37:03.615Z,1000.07
2022-09-15T10:38:03.482Z,1000.03
2022-09-15T10:39:03.520Z,1000.03
2022-09-15T10:40:03.630Z,1000.01
2022-09-15T10:41:03.656Z,1000.02
2022-09-15T10:42:03.685Z,1000.03
2022-09-15T10:43:03.302Z,999.98
2022-09-15T10:44:03.291Z,999.98
2022-09-15T10:45:03.449Z,999.99
2022-09-15T10:46:03.534Z,1000.01
2022-09-15T10:47:03.513Z,999.96
2022-09-15T10:48:03.692Z,999.96
2022-09-15T10:49:03.806Z,999.97
2022-09-15T10:50:03.800Z,999.99
2022-09-15T10:51:03.459Z,999.96
2022-09-15T10:52:03.565Z,999.98
2022-09-15T10:53:03.347Z,999.99
2022-09-15T10:54:03.351Z,999.96
2022-09-15T10:55:03.384Z,999.95
2022-09-15T10:56:03.660Z,999.98
2022-09-15T10:57:03.710Z,999.90
2022-09-15T10:58:03.614Z,999.91
2022-09-15T10:59:03.395Z,999.93
2022-09-15T11:00:03.362Z,999.90
2022-09-15T11:01:03.881Z,999.92
2022-09-15T11:02:03.426Z,999.93
2022-09-15T11:03:03.428Z,999.88
2022-09-15T11:04:02.847Z,999.89
2022-09-15T11:05:03.177Z,999.90
2022-09-15T11:06:03.120Z,999.94
2022-09-15T11:07:02.866Z,999.95
2022-09-15T11:08:02.287Z,999.97
2022-09-15T11:09:02.959Z,999.99
2022-09-15T11:10:02.498Z,1000.00
2022-09-15T11:11:02.442Z,999.97
2022-09-15T11:12:02.811Z,999.95
2022-09-15T11:13:03.567Z,999.94
2022-09-15T11:14:03.622Z,999.94
2022-09-15T11:15:03.417Z,999.95
2022-09-15T11:16:03.675Z,999.98
2022-09-15T11:17:03.683Z,999.98
2022-09-15T11:18:03.259Z,999.99
2022-09-15T11:19:02.695Z,999.97
2022-09-15T11:20:02.700Z,999.96
2022-09-15T11:21:02.772Z,999.92
2022-09-15T11:22:02.686Z,999.93
2022-09-15T11:23:03.321Z,999.90
2022-09-15T11:24:03.065Z,999.92
2022-09-15T11:25:03.382Z,999.94
2022-09-15T11:26:02.976Z,999.96
2022-09-15T11:27:03.375Z,999.94
2022-09-15T11:28:03.145Z,999.96
2022-09-15T11:29:02.776Z,999.99
2022-09-15T11:30:02.855Z,1000.02
2022-09-15T11:31:03.252Z,1000.02
2022-09-15T11:33:03.255Z,1000.02
2022-09-15T11:34:03.762Z,1000.08
2022-09-15T11:35:03.729Z,1000.05
2022-09-15T11:36:03.700Z,1000.09
2022-09-15T11:37:03.350Z,1000.05
2022-09-15T11:38:03.050Z,1000.07
2022-09-15T11:39:02.795Z,1000.05
2022-09-15T11:40:02.906Z,1000.04
2022-09-15T11:41:02.708Z,1000.03
2022-09-15T11:42:02.764Z,1000.04
2022-09-15T11:43:03.450Z,1000.05
2022-09-15T11:44:03.220Z,1000.08
2022-09-15T11:45:02.894Z,1000.10
2022-09-15T11:46:03.380Z,1000.11
2022-09-15T11:47:03.461Z,1000.12
2022-09-15T11:48:03.270Z,1000.18
2022-09-15T11:49:03.879Z,1000.19
2022-09-15T11:50:03.668Z,1000.17
2022-09-15T11:51:03.410Z,1000.16
2022-09-15T11:52:03.346Z,1000.16
2022-09-15T11:53:02.787Z,1000.18
2022-09-15T11:54:02.626Z,1000.19
2022-09-15T11:55:02.548Z,1000.20
2022-09-15T11:56:02.533Z,1000.19
2022-09-15T11:57:02.439Z,1000.21
2022-09-15T11:58:03.507Z,1000.21
2022-09-15T11:59:03.038Z,1000.16
2022-09-15T12:00:02.890Z,1000.19
2022-09-15T12:01:02.983Z,1000.15
2022-09-15T12:02:02.795Z,1000.16
2022-09-15T12:03:02.198Z,1000.11
2022-09-15T12:04:02.139Z,1000.18
2022-09-15T12:05:02.075Z,1000.15
2022-09-15T12:06:02.052Z,1000.14
2022-09-15T12:07:02.168Z,1000.14
2022-09-15T12:08:02.754Z,1000.11
2022-09-15T12:09:02.499Z,1000.11
2022-09-15T12:10:02.432Z,1000.12
2022-09-15T12:11:02.346Z,1000.11
2022-09-15T12:12:02.726Z,1000.13
2022-09-15T12:13:02.657Z,1000.15
2022-09-15T12:14:02.757Z,1000.15
2022-09-15T12:15:03.067Z,1000.10
2022-09-15T12:16:03.038Z,1000.09
2022-09-15T12:17:02.846Z,1000.14
2022-09-15T12:18:06.622Z,1000.16
2022-09-15T12:19:02.100Z,1000.13
2022-09-15T12:20:01.772Z,1000.15
2022-09-15T12:21:01.759Z,1000.12
2022-09-15T12:22:02.414Z,1000.09
2022-09-15T12:23:02.548Z,1000.10
2022-09-15T12:24:02.448Z,1000.10
2022-09-15T12:25:02.421Z,1000.10